Main page
METAR-TAF:

METAR-TAF

Airports :

Rivolto Air Base

Udine, Italy

latitude: 45-59N, longitude: 013-02E, elevation: 51 m

Current weather observation

The report was made 10 hours and 54 minutes ago, at 14:55 UTC
Wind 2 kt from the North/Northeast
Temperature 8°C
Humidity 81%
Pressure 1023 hPa
Visibility: 1200 m
Scattered clouds at a height of 300 ft
Broken clouds at a height of 1500 ft
light drizzle, mist

METAR: LIPI 171455Z 02002KT 1200 -DZ BR SCT003 BKN015 08/05 Q1023 RMK OVC VIS MIN 1200 WIND THR06 05002KT WIND THR24 04002KT AMB

Time: 02:49 (01:49 UTC)

Forecast

The report was made 11 hours and 49 minutes ago, at 14:00 UTC
Forecast valid from 17 at 15 UTC to 17 at 24 UTC
Wind 3 kt from variable directions
Visibility: 1500 m
Scattered clouds at a height of 300 ft
Broken clouds at a height of 2000 ft
rain, mist
Temporary
from 17 at 18 UTC to 17 at 24 UTC
Visibility: 0800 m
Overcast at a height of 500 ft
fog

TAF: LIPI 171400Z 1715/1724 VRB03KT 1500 RA BR SCT003 BKN020 TEMPO 1718/1724 0800 FG OVC005

Weather observations and forecasts of more than 4000 airports (METAR and TAF reports).

The available stations are represented by yellow and red dots on the map.

Hover mouse over dot to see the name of the station.

Then click to see weather observations and forecasts.

To change the map : click on the green buttons with a black cross to zoom in, on the green button with a dash to zoom out, or on the green arrows for adjacent maps.


METAR-TAF: